sensor_id;sensor_type;location;lat;lon;timestamp;temperature;humidity
6690;DHT22;3382;51.576;8.076;2023-06-01T00:01:49;16.00;99.90
6690;DHT22;3382;51.576;8.076;2023-06-01T00:04:15;15.70;99.90
6690;DHT22;3382;51.576;8.076;2023-06-01T00:06:42;15.90;99.90
6690;DHT22;3382;51.576;8.076;2023-06-01T00:09:08;15.90;99.90
6690;DHT22;3382;51.576;8.076;2023-06-01T00:11:34;15.80;99.90
6690;DHT22;3382;51.576;8.076;2023-06-01T00:13:59;15.80;99.90
6690;DHT22;3382;51.576;8.076;2023-06-01T00:16:25;15.90;99.90
6690;DHT22;3382;51.576;8.076;2023-06-01T00:18:51;15.80;99.90
6690;DHT22;3382;51.576;8.076;2023-06-01T00:21:18;15.70;99.90
6690;DHT22;3382;51.576;8.076;2023-06-01T00:23:44;15.70;99.90
6690;DHT22;3382;51.576;8.076;2023-06-01T00:26:10;15.70;99.90
6690;DHT22;3382;51.576;8.076;2023-06-01T00:28:36;15.60;99.90
6690;DHT22;3382;51.576;8.076;2023-06-01T00:31:02;15.60;99.90
6690;DHT22;3382;51.576;8.076;2023-06-01T00:33:27;15.60;99.90
6690;DHT22;3382;51.576;8.076;2023-06-01T00:35:53;15.60;99.90
6690;DHT22;3382;51.576;8.076;2023-06-01T00:38:19;15.50;99.90
6690;DHT22;3382;51.576;8.076;2023-06-01T00:40:44;15.50;99.90
6690;DHT22;3382;51.576;8.076;2023-06-01T00:43:10;15.50;99.90
6690;DHT22;3382;51.576;8.076;2023-06-01T00:45:36;15.50;99.90
6690;DHT22;3382;51.576;8.076;2023-06-01T00:48:03;15.40;99.90
6690;DHT22;3382;51.576;8.076;2023-06-01T00:50:30;15.40;99.90
6690;DHT22;3382;51.576;8.076;2023-06-01T00:52:56;15.30;99.90
6690;DHT22;3382;51.576;8.076;2023-06-01T00:55:22;15.30;99.90
6690;DHT22;3382;51.576;8.076;2023-06-01T00:57:49;15.20;99.90
6690;DHT22;3382;51.576;8.076;2023-06-01T01:00:16;15.20;99.90
6690;DHT22;3382;51.576;8.076;2023-06-01T01:02:42;15.20;99.90
6690;DHT22;3382;51.576;8.076;2023-06-01T01:05:15;15.10;99.90
6690;DHT22;3382;51.576;8.076;2023-06-01T01:18:30;14.80;99.90
6690;DHT22;3382;51.576;8.076;2023-06-01T01:21:02;14.90;99.90
6690;DHT22;3382;51.576;8.076;2023-06-01T01:28:51;14.70;99.90
6690;DHT22;3382;51.576;8.076;2023-06-01T01:31:23;14.60;99.90
6690;DHT22;3382;51.576;8.076;2023-06-01T01:33:50;14.60;99.90
6690;DHT22;3382;51.576;8.076;2023-06-01T01:36:18;14.60;99.90
6690;DHT22;3382;51.576;8.076;2023-06-01T01:38:44;14.50;99.90
6690;DHT22;3382;51.576;8.076;2023-06-01T01:41:10;14.50;99.90
6690;DHT22;3382;51.576;8.076;2023-06-01T01:43:36;14.40;99.90
6690;DHT22;3382;51.576;8.076;2023-06-01T01:46:25;14.30;99.90
6690;DHT22;3382;51.576;8.076;2023-06-01T01:49:12;14.30;99.90
6690;DHT22;3382;51.576;8.076;2023-06-01T01:51:49;14.30;99.90
6690;DHT22;3382;51.576;8.076;2023-06-01T01:54:16;14.20;99.90
6690;DHT22;3382;51.576;8.076;2023-06-01T01:56:44;14.10;99.90
6690;DHT22;3382;51.576;8.076;2023-06-01T01:59:10;14.00;99.90
6690;DHT22;3382;51.576;8.076;2023-06-01T02:01:37;14.00;99.90
6690;DHT22;3382;51.576;8.076;2023-06-01T02:04:07;13.90;99.90
6690;DHT22;3382;51.576;8.076;2023-06-01T02:06:33;14.50;99.90
6690;DHT22;3382;51.576;8.076;2023-06-01T02:08:59;13.80;99.90
6690;DHT22;3382;51.576;8.076;2023-06-01T02:11:25;13.70;99.90
6690;DHT22;3382;51.576;8.076;2023-06-01T02:13:50;13.70;99.90
6690;DHT22;3382;51.576;8.076;2023-06-01T02:16:16;13.70;99.90
6690;DHT22;3382;51.576;8.076;2023-06-01T02:18:44;13.70;99.90
6690;DHT22;3382;51.576;8.076;2023-06-01T02:21:14;13.70;99.90
6690;DHT22;3382;51.576;8.076;2023-06-01T02:23:40;13.70;99.90
6690;DHT22;3382;51.576;8.076;2023-06-01T02:26:08;13.80;99.90
6690;DHT22;3382;51.576;8.076;2023-06-01T02:28:33;13.60;99.90
6690;DHT22;3382;51.576;8.076;2023-06-01T02:31:01;13.70;99.90
6690;DHT22;3382;51.576;8.076;2023-06-01T02:33:26;13.70;99.90
6690;DHT22;3382;51.576;8.076;2023-06-01T02:35:53;13.70;99.90
6690;DHT22;3382;51.576;8.076;2023-06-01T02:38:18;13.70;99.90
6690;DHT22;3382;51.576;8.076;2023-06-01T02:40:44;13.70;99.90
6690;DHT22;3382;51.576;8.076;2023-06-01T02:43:10;13.70;99.90
6690;DHT22;3382;51.576;8.076;2023-06-01T02:45:35;13.70;99.90
6690;DHT22;3382;51.576;8.076;2023-06-01T02:48:01;13.60;99.90
6690;DHT22;3382;51.576;8.076;2023-06-01T02:50:27;13.60;99.90
6690;DHT22;3382;51.576;8.076;2023-06-01T02:52:52;13.60;99.90
6690;DHT22;3382;51.576;8.076;2023-06-01T02:55:18;13.60;99.90
6690;DHT22;3382;51.576;8.076;2023-06-01T02:57:43;13.50;99.90
6690;DHT22;3382;51.576;8.076;2023-06-01T03:00:09;13.50;99.90
6690;DHT22;3382;51.576;8.076;2023-06-01T03:02:44;13.50;99.90
6690;DHT22;3382;51.576;8.076;2023-06-01T03:05:11;13.40;99.90
6690;DHT22;3382;51.576;8.076;2023-06-01T03:07:43;13.40;99.90
6690;DHT22;3382;51.576;8.076;2023-06-01T03:10:10;13.30;99.90
6690;DHT22;3382;51.576;8.076;2023-06-01T03:12:36;13.30;99.90
6690;DHT22;3382;51.576;8.076;2023-06-01T03:15:03;13.40;99.90
6690;DHT22;3382;51.576;8.076;2023-06-01T03:17:29;13.30;99.90
6690;DHT22;3382;51.576;8.076;2023-06-01T03:19:55;13.30;99.90
6690;DHT22;3382;51.576;8.076;2023-06-01T03:22:21;13.30;99.90
6690;DHT22;3382;51.576;8.076;2023-06-01T03:24:46;13.30;99.90
6690;DHT22;3382;51.576;8.076;2023-06-01T03:27:15;13.30;99.90
6690;DHT22;3382;51.576;8.076;2023-06-01T03:29:41;13.30;99.90
6690;DHT22;3382;51.576;8.076;2023-06-01T03:32:07;13.20;99.90
6690;DHT22;3382;51.576;8.076;2023-06-01T03:34:33;13.20;99.90
6690;DHT22;3382;51.576;8.076;2023-06-01T03:37:02;13.20;99.90
6690;DHT22;3382;51.576;8.076;2023-06-01T03:39:29;13.40;99.90
6690;DHT22;3382;51.576;8.076;2023-06-01T03:41:58;13.40;99.90
6690;DHT22;3382;51.576;8.076;2023-06-01T03:44:24;13.20;99.90
6690;DHT22;3382;51.576;8.076;2023-06-01T03:46:50;13.20;99.90
6690;DHT22;3382;51.576;8.076;2023-06-01T03:49:16;13.20;99.90
6690;DHT22;3382;51.576;8.076;2023-06-01T03:51:41;12.90;99.90
6690;DHT22;3382;51.576;8.076;2023-06-01T03:54:07;12.90;99.90
6690;DHT22;3382;51.576;8.076;2023-06-01T03:56:33;12.80;99.90
6690;DHT22;3382;51.576;8.076;2023-06-01T03:58:58;12.70;99.90
6690;DHT22;3382;51.576;8.076;2023-06-01T04:01:24;12.70;99.90
6690;DHT22;3382;51.576;8.076;2023-06-01T04:03:54;12.70;99.90
6690;DHT22;3382;51.576;8.076;2023-06-01T04:06:21;12.60;99.90
6690;DHT22;3382;51.576;8.076;2023-06-01T04:08:47;12.40;99.90
6690;DHT22;3382;51.576;8.076;2023-06-01T04:11:15;12.40;99.90
6690;DHT22;3382;51.576;8.076;2023-06-01T04:13:41;12.70;99.90
6690;DHT22;3382;51.576;8.076;2023-06-01T04:16:07;12.40;99.90
6690;DHT22;3382;51.576;8.076;2023-06-01T04:18:33;12.50;99.90
6690;DHT22;3382;51.576;8.076;2023-06-01T04:20:58;12.60;99.90
6690;DHT22;3382;51.576;8.076;2023-06-01T04:23:24;12.60;99.90
6690;DHT22;3382;51.576;8.076;2023-06-01T04:25:50;12.60;99.90
6690;DHT22;3382;51.576;8.076;2023-06-01T04:28:19;12.70;99.90
6690;DHT22;3382;51.576;8.076;2023-06-01T04:30:45;12.70;99.90
6690;DHT22;3382;51.576;8.076;2023-06-01T04:33:16;12.80;99.90
6690;DHT22;3382;51.576;8.076;2023-06-01T04:35:42;12.80;99.90
6690;DHT22;3382;51.576;8.076;2023-06-01T04:38:09;12.80;99.90
6690;DHT22;3382;51.576;8.076;2023-06-01T04:40:34;12.80;99.90
6690;DHT22;3382;51.576;8.076;2023-06-01T04:43:00;12.80;99.90
6690;DHT22;3382;51.576;8.076;2023-06-01T04:45:28;12.90;99.90
6690;DHT22;3382;51.576;8.076;2023-06-01T04:47:56;12.90;99.90
6690;DHT22;3382;51.576;8.076;2023-06-01T04:50:23;13.00;99.90
6690;DHT22;3382;51.576;8.076;2023-06-01T04:52:48;13.00;99.90
6690;DHT22;3382;51.576;8.076;2023-06-01T04:55:15;13.10;99.90
6690;DHT22;3382;51.576;8.076;2023-06-01T04:57:42;13.10;99.90
6690;DHT22;3382;51.576;8.076;2023-06-01T05:00:12;13.10;99.90
6690;DHT22;3382;51.576;8.076;2023-06-01T05:02:40;13.10;99.90
6690;DHT22;3382;51.576;8.076;2023-06-01T05:05:07;13.40;99.90
6690;DHT22;3382;51.576;8.076;2023-06-01T05:07:39;13.30;99.90
6690;DHT22;3382;51.576;8.076;2023-06-01T05:10:07;13.30;99.90
6690;DHT22;3382;51.576;8.076;2023-06-01T05:12:33;13.30;99.90
6690;DHT22;3382;51.576;8.076;2023-06-01T05:15:00;13.30;99.90
6690;DHT22;3382;51.576;8.076;2023-06-01T05:17:26;13.50;99.90
6690;DHT22;3382;51.576;8.076;2023-06-01T05:19:52;13.60;99.90
6690;DHT22;3382;51.576;8.076;2023-06-01T05:22:17;14.00;99.90
6690;DHT22;3382;51.576;8.076;2023-06-01T05:24:43;14.30;99.90
6690;DHT22;3382;51.576;8.076;2023-06-01T05:27:09;14.20;99.90
6690;DHT22;3382;51.576;8.076;2023-06-01T05:29:34;14.00;99.90
6690;DHT22;3382;51.576;8.076;2023-06-01T05:32:00;14.00;99.90
6690;DHT22;3382;51.576;8.076;2023-06-01T05:34:25;13.90;99.90
6690;DHT22;3382;51.576;8.076;2023-06-01T05:36:51;13.80;99.90
6690;DHT22;3382;51.576;8.076;2023-06-01T05:39:17;13.70;99.90
6690;DHT22;3382;51.576;8.076;2023-06-01T05:41:42;13.50;99.90
6690;DHT22;3382;51.576;8.076;2023-06-01T05:44:08;13.50;99.90
6690;DHT22;3382;51.576;8.076;2023-06-01T05:46:34;13.40;99.90
6690;DHT22;3382;51.576;8.076;2023-06-01T05:48:59;13.70;99.90
6690;DHT22;3382;51.576;8.076;2023-06-01T05:51:25;13.60;99.90
6690;DHT22;3382;51.576;8.076;2023-06-01T05:53:51;13.40;99.90
6690;DHT22;3382;51.576;8.076;2023-06-01T05:56:17;13.30;99.90
6690;DHT22;3382;51.576;8.076;2023-06-01T05:58:43;13.30;99.90
6690;DHT22;3382;51.576;8.076;2023-06-01T06:01:09;13.30;99.90
6690;DHT22;3382;51.576;8.076;2023-06-01T06:03:36;13.20;99.90
6690;DHT22;3382;51.576;8.076;2023-06-01T06:06:02;13.20;99.90
6690;DHT22;3382;51.576;8.076;2023-06-01T06:08:28;13.20;99.90
6690;DHT22;3382;51.576;8.076;2023-06-01T06:10:54;13.20;99.90
6690;DHT22;3382;51.576;8.076;2023-06-01T06:13:20;13.10;99.90
6690;DHT22;3382;51.576;8.076;2023-06-01T06:15:45;13.20;99.90
6690;DHT22;3382;51.576;8.076;2023-06-01T06:18:11;13.40;99.90
6690;DHT22;3382;51.576;8.076;2023-06-01T06:20:37;13.30;99.90
6690;DHT22;3382;51.576;8.076;2023-06-01T06:23:02;13.30;99.90
6690;DHT22;3382;51.576;8.076;2023-06-01T06:25:28;13.40;99.90
6690;DHT22;3382;51.576;8.076;2023-06-01T06:27:53;13.30;99.90
6690;DHT22;3382;51.576;8.076;2023-06-01T06:30:19;13.20;99.90
6690;DHT22;3382;51.576;8.076;2023-06-01T06:32:45;13.20;99.90
6690;DHT22;3382;51.576;8.076;2023-06-01T06:35:10;13.20;99.90
6690;DHT22;3382;51.576;8.076;2023-06-01T06:37:41;13.30;99.90
6690;DHT22;3382;51.576;8.076;2023-06-01T06:40:09;13.40;99.90
6690;DHT22;3382;51.576;8.076;2023-06-01T06:42:35;13.40;99.90
6690;DHT22;3382;51.576;8.076;2023-06-01T06:45:01;13.40;99.90
6690;DHT22;3382;51.576;8.076;2023-06-01T06:47:26;13.40;99.90
6690;DHT22;3382;51.576;8.076;2023-06-01T06:49:53;13.30;99.90
6690;DHT22;3382;51.576;8.076;2023-06-01T06:52:22;13.30;99.90
6690;DHT22;3382;51.576;8.076;2023-06-01T06:54:48;13.60;99.90
6690;DHT22;3382;51.576;8.076;2023-06-01T06:57:13;13.60;99.90
6690;DHT22;3382;51.576;8.076;2023-06-01T06:59:39;13.80;99.90
6690;DHT22;3382;51.576;8.076;2023-06-01T07:02:05;13.90;99.90
6690;DHT22;3382;51.576;8.076;2023-06-01T07:04:31;13.90;99.90
6690;DHT22;3382;51.576;8.076;2023-06-01T07:06:56;13.90;99.90
6690;DHT22;3382;51.576;8.076;2023-06-01T07:09:22;13.50;99.90
6690;DHT22;3382;51.576;8.076;2023-06-01T07:11:48;13.70;99.90
6690;DHT22;3382;51.576;8.076;2023-06-01T07:14:14;13.30;99.90
6690;DHT22;3382;51.576;8.076;2023-06-01T07:16:40;13.30;99.90
6690;DHT22;3382;51.576;8.076;2023-06-01T07:19:07;13.20;99.90
6690;DHT22;3382;51.576;8.076;2023-06-01T07:21:32;13.20;99.90
6690;DHT22;3382;51.576;8.076;2023-06-01T07:23:58;13.10;99.90
6690;DHT22;3382;51.576;8.076;2023-06-01T07:26:24;13.10;99.90
6690;DHT22;3382;51.576;8.076;2023-06-01T07:28:54;13.10;99.90
6690;DHT22;3382;51.576;8.076;2023-06-01T07:31:22;13.20;99.90
6690;DHT22;3382;51.576;8.076;2023-06-01T07:33:47;13.40;99.90
6690;DHT22;3382;51.576;8.076;2023-06-01T07:36:13;13.40;99.90
6690;DHT22;3382;51.576;8.076;2023-06-01T07:38:39;13.40;99.90
6690;DHT22;3382;51.576;8.076;2023-06-01T07:41:05;13.60;99.90
6690;DHT22;3382;51.576;8.076;2023-06-01T07:43:31;13.50;99.90
6690;DHT22;3382;51.576;8.076;2023-06-01T07:45:57;13.50;99.90
6690;DHT22;3382;51.576;8.076;2023-06-01T07:48:23;13.50;99.90
6690;DHT22;3382;51.576;8.076;2023-06-01T07:50:48;13.50;99.90
6690;DHT22;3382;51.576;8.076;2023-06-01T07:53:16;13.50;99.90
6690;DHT22;3382;51.576;8.076;2023-06-01T07:55:43;13.50;99.90
6690;DHT22;3382;51.576;8.076;2023-06-01T07:58:09;13.80;99.90
6690;DHT22;3382;51.576;8.076;2023-06-01T08:00:34;13.70;99.90
6690;DHT22;3382;51.576;8.076;2023-06-01T08:03:01;13.80;99.90
6690;DHT22;3382;51.576;8.076;2023-06-01T08:05:33;13.80;99.90
6690;DHT22;3382;51.576;8.076;2023-06-01T08:07:59;13.90;99.90
6690;DHT22;3382;51.576;8.076;2023-06-01T08:10:25;13.90;99.90
6690;DHT22;3382;51.576;8.076;2023-06-01T08:12:50;14.00;99.90
6690;DHT22;3382;51.576;8.076;2023-06-01T08:15:24;13.90;99.90
6690;DHT22;3382;51.576;8.076;2023-06-01T08:17:51;14.00;99.90
6690;DHT22;3382;51.576;8.076;2023-06-01T08:20:20;14.00;99.90
6690;DHT22;3382;51.576;8.076;2023-06-01T08:22:47;14.10;99.90
6690;DHT22;3382;51.576;8.076;2023-06-01T08:25:13;14.10;99.90
6690;DHT22;3382;51.576;8.076;2023-06-01T08:27:40;14.20;99.90
6690;DHT22;3382;51.576;8.076;2023-06-01T08:30:06;14.40;99.90
6690;DHT22;3382;51.576;8.076;2023-06-01T08:32:32;14.80;99.90
6690;DHT22;3382;51.576;8.076;2023-06-01T08:34:58;14.90;99.90
6690;DHT22;3382;51.576;8.076;2023-06-01T08:37:24;14.90;99.90
6690;DHT22;3382;51.576;8.076;2023-06-01T08:39:49;14.80;99.90
6690;DHT22;3382;51.576;8.076;2023-06-01T08:44:55;15.00;99.90
6690;DHT22;3382;51.576;8.076;2023-06-01T08:47:24;15.10;99.90
6690;DHT22;3382;51.576;8.076;2023-06-01T08:49:51;15.20;99.90
6690;DHT22;3382;51.576;8.076;2023-06-01T08:52:23;15.10;99.90
6690;DHT22;3382;51.576;8.076;2023-06-01T08:54:50;15.10;99.90
6690;DHT22;3382;51.576;8.076;2023-06-01T08:57:15;15.10;99.90
6690;DHT22;3382;51.576;8.076;2023-06-01T08:59:41;15.20;99.90
6690;DHT22;3382;51.576;8.076;2023-06-01T09:02:08;15.30;99.90
6690;DHT22;3382;51.576;8.076;2023-06-01T09:04:35;15.80;99.90
6690;DHT22;3382;51.576;8.076;2023-06-01T09:07:03;16.30;99.90
6690;DHT22;3382;51.576;8.076;2023-06-01T09:09:29;16.30;99.90
6690;DHT22;3382;51.576;8.076;2023-06-01T09:15:15;16.30;99.90
6690;DHT22;3382;51.576;8.076;2023-06-01T09:17:46;16.20;99.90
6690;DHT22;3382;51.576;8.076;2023-06-01T09:20:24;16.10;99.90
6690;DHT22;3382;51.576;8.076;2023-06-01T09:22:50;16.20;99.90
6690;DHT22;3382;51.576;8.076;2023-06-01T09:25:16;16.30;99.90
6690;DHT22;3382;51.576;8.076;2023-06-01T09:27:46;16.30;99.90
6690;DHT22;3382;51.576;8.076;2023-06-01T09:30:13;16.30;99.90
6690;DHT22;3382;51.576;8.076;2023-06-01T09:32:39;16.40;99.90
6690;DHT22;3382;51.576;8.076;2023-06-01T09:35:05;16.50;99.90
6690;DHT22;3382;51.576;8.076;2023-06-01T09:37:36;16.60;99.90
6690;DHT22;3382;51.576;8.076;2023-06-01T09:40:04;16.50;99.90
6690;DHT22;3382;51.576;8.076;2023-06-01T09:42:41;16.60;99.90
6690;DHT22;3382;51.576;8.076;2023-06-01T09:45:20;16.70;99.90
6690;DHT22;3382;51.576;8.076;2023-06-01T09:47:47;16.80;99.90
6690;DHT22;3382;51.576;8.076;2023-06-01T09:50:32;17.00;99.90
6690;DHT22;3382;51.576;8.076;2023-06-01T09:52:59;17.30;99.90
6690;DHT22;3382;51.576;8.076;2023-06-01T09:55:25;17.80;99.90
6690;DHT22;3382;51.576;8.076;2023-06-01T09:57:50;18.00;99.90
6690;DHT22;3382;51.576;8.076;2023-06-01T10:00:28;18.00;99.90
6690;DHT22;3382;51.576;8.076;2023-06-01T10:02:54;18.20;99.90
6690;DHT22;3382;51.576;8.076;2023-06-01T10:05:23;18.80;99.90
6690;DHT22;3382;51.576;8.076;2023-06-01T10:07:49;19.30;99.90
6690;DHT22;3382;51.576;8.076;2023-06-01T10:10:15;18.90;99.90
6690;DHT22;3382;51.576;8.076;2023-06-01T10:12:40;18.30;99.90
6690;DHT22;3382;51.576;8.076;2023-06-01T10:15:07;18.00;99.90
6690;DHT22;3382;51.576;8.076;2023-06-01T10:17:35;18.30;99.90
6690;DHT22;3382;51.576;8.076;2023-06-01T10:20:02;18.10;99.90
6690;DHT22;3382;51.576;8.076;2023-06-01T10:22:29;17.90;99.90
6690;DHT22;3382;51.576;8.076;2023-06-01T10:24:57;18.10;99.90
6690;DHT22;3382;51.576;8.076;2023-06-01T10:27:57;18.20;99.90
6690;DHT22;3382;51.576;8.076;2023-06-01T10:30:24;18.10;99.90
6690;DHT22;3382;51.576;8.076;2023-06-01T10:32:49;18.10;99.90
6690;DHT22;3382;51.576;8.076;2023-06-01T10:40:42;17.50;99.90
6690;DHT22;3382;51.576;8.076;2023-06-01T10:46:03;17.70;99.90
6690;DHT22;3382;51.576;8.076;2023-06-01T10:48:51;17.90;99.90
6690;DHT22;3382;51.576;8.076;2023-06-01T10:51:19;18.10;99.90
6690;DHT22;3382;51.576;8.076;2023-06-01T10:53:45;18.00;99.90
6690;DHT22;3382;51.576;8.076;2023-06-01T10:56:26;18.20;99.90
6690;DHT22;3382;51.576;8.076;2023-06-01T11:01:39;18.20;99.90
6690;DHT22;3382;51.576;8.076;2023-06-01T11:04:05;18.30;99.90
6690;DHT22;3382;51.576;8.076;2023-06-01T11:06:41;18.20;99.90
6690;DHT22;3382;51.576;8.076;2023-06-01T11:09:09;18.10;99.90
6690;DHT22;3382;51.576;8.076;2023-06-01T11:14:18;17.90;99.90
6690;DHT22;3382;51.576;8.076;2023-06-01T11:16:44;17.90;99.90
6690;DHT22;3382;51.576;8.076;2023-06-01T11:19:10;18.10;99.90
6690;DHT22;3382;51.576;8.076;2023-06-01T11:21:43;18.50;99.90
6690;DHT22;3382;51.576;8.076;2023-06-01T11:24:13;18.90;99.90
6690;DHT22;3382;51.576;8.076;2023-06-01T11:31:57;18.60;99.90
6690;DHT22;3382;51.576;8.076;2023-06-01T11:34:34;18.40;99.90
6690;DHT22;3382;51.576;8.076;2023-06-01T11:37:03;18.30;99.90
6690;DHT22;3382;51.576;8.076;2023-06-01T11:39:29;18.30;99.90
6690;DHT22;3382;51.576;8.076;2023-06-01T11:44:32;18.20;99.90
6690;DHT22;3382;51.576;8.076;2023-06-01T11:46:58;18.50;99.90
6690;DHT22;3382;51.576;8.076;2023-06-01T11:49:24;18.70;99.90
6690;DHT22;3382;51.576;8.076;2023-06-01T11:51:51;18.60;99.90
6690;DHT22;3382;51.576;8.076;2023-06-01T11:54:27;18.90;99.90
6690;DHT22;3382;51.576;8.076;2023-06-01T11:56:54;18.70;99.90
6690;DHT22;3382;51.576;8.076;2023-06-01T11:59:21;18.50;99.90
6690;DHT22;3382;51.576;8.076;2023-06-01T12:01:48;18.50;99.90
6690;DHT22;3382;51.576;8.076;2023-06-01T12:04:18;18.70;99.90
6690;DHT22;3382;51.576;8.076;2023-06-01T12:06:45;18.90;99.90
6690;DHT22;3382;51.576;8.076;2023-06-01T12:09:15;18.70;99.90
6690;DHT22;3382;51.576;8.076;2023-06-01T12:11:43;18.70;99.90
6690;DHT22;3382;51.576;8.076;2023-06-01T12:14:13;18.60;99.90
6690;DHT22;3382;51.576;8.076;2023-06-01T12:19:17;18.60;99.90
6690;DHT22;3382;51.576;8.076;2023-06-01T12:21:47;18.60;99.90
6690;DHT22;3382;51.576;8.076;2023-06-01T12:24:14;18.80;99.90
6690;DHT22;3382;51.576;8.076;2023-06-01T12:26:40;18.80;99.90
6690;DHT22;3382;51.576;8.076;2023-06-01T12:29:06;18.90;99.90
6690;DHT22;3382;51.576;8.076;2023-06-01T12:31:32;19.30;99.90
6690;DHT22;3382;51.576;8.076;2023-06-01T12:33:57;19.40;99.90
6690;DHT22;3382;51.576;8.076;2023-06-01T12:36:31;19.20;99.90
6690;DHT22;3382;51.576;8.076;2023-06-01T12:38:57;19.00;99.90
6690;DHT22;3382;51.576;8.076;2023-06-01T12:41:24;18.80;99.90
6690;DHT22;3382;51.576;8.076;2023-06-01T12:43:50;18.90;99.90
6690;DHT22;3382;51.576;8.076;2023-06-01T12:46:19;19.00;99.90
6690;DHT22;3382;51.576;8.076;2023-06-01T12:48:45;19.30;99.90
6690;DHT22;3382;51.576;8.076;2023-06-01T12:51:12;19.50;99.90
6690;DHT22;3382;51.576;8.076;2023-06-01T12:53:39;19.60;99.90
6690;DHT22;3382;51.576;8.076;2023-06-01T12:56:05;19.50;99.90
6690;DHT22;3382;51.576;8.076;2023-06-01T12:58:32;19.40;99.90
6690;DHT22;3382;51.576;8.076;2023-06-01T13:00:57;19.50;99.90
6690;DHT22;3382;51.576;8.076;2023-06-01T13:03:23;19.90;99.90
6690;DHT22;3382;51.576;8.076;2023-06-01T13:05:49;19.80;99.90
6690;DHT22;3382;51.576;8.076;2023-06-01T13:08:16;19.70;99.90
6690;DHT22;3382;51.576;8.076;2023-06-01T13:10:43;19.90;99.90
6690;DHT22;3382;51.576;8.076;2023-06-01T13:13:09;19.70;99.90
6690;DHT22;3382;51.576;8.076;2023-06-01T13:15:42;19.50;99.90
6690;DHT22;3382;51.576;8.076;2023-06-01T13:18:08;19.60;99.90
6690;DHT22;3382;51.576;8.076;2023-06-01T13:20:34;20.00;99.90
6690;DHT22;3382;51.576;8.076;2023-06-01T13:23:01;20.20;99.90
6690;DHT22;3382;51.576;8.076;2023-06-01T13:25:27;20.30;99.90
6690;DHT22;3382;51.576;8.076;2023-06-01T13:27:52;20.10;99.90
6690;DHT22;3382;51.576;8.076;2023-06-01T13:30:18;19.90;99.90
6690;DHT22;3382;51.576;8.076;2023-06-01T13:32:44;19.70;99.90
6690;DHT22;3382;51.576;8.076;2023-06-01T13:35:10;19.30;99.90
6690;DHT22;3382;51.576;8.076;2023-06-01T13:37:37;19.30;99.90
6690;DHT22;3382;51.576;8.076;2023-06-01T13:40:04;19.30;99.90
6690;DHT22;3382;51.576;8.076;2023-06-01T13:42:31;19.50;99.90
6690;DHT22;3382;51.576;8.076;2023-06-01T13:44:58;19.60;99.90
6690;DHT22;3382;51.576;8.076;2023-06-01T13:47:23;19.90;99.90
6690;DHT22;3382;51.576;8.076;2023-06-01T13:49:49;20.30;99.90
6690;DHT22;3382;51.576;8.076;2023-06-01T13:52:15;20.50;99.90
6690;DHT22;3382;51.576;8.076;2023-06-01T13:54:40;20.30;99.90
6690;DHT22;3382;51.576;8.076;2023-06-01T13:57:07;20.10;99.90
6690;DHT22;3382;51.576;8.076;2023-06-01T13:59:33;20.30;99.90
6690;DHT22;3382;51.576;8.076;2023-06-01T14:02:04;20.20;99.90
6690;DHT22;3382;51.576;8.076;2023-06-01T14:04:30;20.10;99.90
6690;DHT22;3382;51.576;8.076;2023-06-01T14:06:56;19.90;99.90
6690;DHT22;3382;51.576;8.076;2023-06-01T14:09:22;19.60;99.90
6690;DHT22;3382;51.576;8.076;2023-06-01T14:11:49;19.60;99.90
6690;DHT22;3382;51.576;8.076;2023-06-01T14:14:15;19.30;99.90
6690;DHT22;3382;51.576;8.076;2023-06-01T14:16:41;19.10;99.90
6690;DHT22;3382;51.576;8.076;2023-06-01T14:19:06;18.80;99.90
6690;DHT22;3382;51.576;8.076;2023-06-01T14:21:32;18.90;99.90
6690;DHT22;3382;51.576;8.076;2023-06-01T14:24:00;19.30;99.90
6690;DHT22;3382;51.576;8.076;2023-06-01T14:26:26;19.60;99.90
6690;DHT22;3382;51.576;8.076;2023-06-01T14:28:52;19.60;99.90
6690;DHT22;3382;51.576;8.076;2023-06-01T14:31:18;19.70;99.90
6690;DHT22;3382;51.576;8.076;2023-06-01T14:33:45;19.80;99.90
6690;DHT22;3382;51.576;8.076;2023-06-01T14:36:11;19.60;99.90
6690;DHT22;3382;51.576;8.076;2023-06-01T14:38:37;19.20;99.90
6690;DHT22;3382;51.576;8.076;2023-06-01T14:41:02;19.00;99.90
6690;DHT22;3382;51.576;8.076;2023-06-01T14:43:28;19.10;99.90
6690;DHT22;3382;51.576;8.076;2023-06-01T14:45:55;19.10;99.90
6690;DHT22;3382;51.576;8.076;2023-06-01T14:48:21;19.10;99.90
6690;DHT22;3382;51.576;8.076;2023-06-01T14:50:47;19.00;99.90
6690;DHT22;3382;51.576;8.076;2023-06-01T14:53:12;18.90;99.90
6690;DHT22;3382;51.576;8.076;2023-06-01T14:55:39;18.90;99.90
6690;DHT22;3382;51.576;8.076;2023-06-01T14:58:06;19.20;99.90
6690;DHT22;3382;51.576;8.076;2023-06-01T15:00:32;19.40;99.90
6690;DHT22;3382;51.576;8.076;2023-06-01T15:02:58;19.20;99.90
6690;DHT22;3382;51.576;8.076;2023-06-01T15:05:24;19.20;99.90
6690;DHT22;3382;51.576;8.076;2023-06-01T15:07:49;19.80;99.90
6690;DHT22;3382;51.576;8.076;2023-06-01T15:10:15;20.20;99.90
6690;DHT22;3382;51.576;8.076;2023-06-01T15:12:40;20.10;99.90
6690;DHT22;3382;51.576;8.076;2023-06-01T15:15:06;20.00;99.90
6690;DHT22;3382;51.576;8.076;2023-06-01T15:17:32;19.90;99.90
6690;DHT22;3382;51.576;8.076;2023-06-01T15:19:57;19.80;99.90
6690;DHT22;3382;51.576;8.076;2023-06-01T15:22:23;19.80;99.90
6690;DHT22;3382;51.576;8.076;2023-06-01T15:24:49;19.70;99.90
6690;DHT22;3382;51.576;8.076;2023-06-01T15:27:14;20.20;99.90
6690;DHT22;3382;51.576;8.076;2023-06-01T15:29:40;20.60;99.90
6690;DHT22;3382;51.576;8.076;2023-06-01T15:32:06;21.10;99.90
6690;DHT22;3382;51.576;8.076;2023-06-01T15:34:32;21.00;99.90
6690;DHT22;3382;51.576;8.076;2023-06-01T15:36:57;20.60;99.90
6690;DHT22;3382;51.576;8.076;2023-06-01T15:39:23;19.90;99.90
6690;DHT22;3382;51.576;8.076;2023-06-01T15:41:49;19.70;99.90
6690;DHT22;3382;51.576;8.076;2023-06-01T15:44:14;19.70;99.90
6690;DHT22;3382;51.576;8.076;2023-06-01T15:46:40;19.70;99.90
6690;DHT22;3382;51.576;8.076;2023-06-01T15:49:09;20.00;99.90
6690;DHT22;3382;51.576;8.076;2023-06-01T15:51:35;19.80;99.90
6690;DHT22;3382;51.576;8.076;2023-06-01T15:54:00;19.60;99.90
6690;DHT22;3382;51.576;8.076;2023-06-01T15:56:26;19.60;99.90
6690;DHT22;3382;51.576;8.076;2023-06-01T15:58:52;19.80;99.90
6690;DHT22;3382;51.576;8.076;2023-06-01T16:01:18;20.00;99.90
6690;DHT22;3382;51.576;8.076;2023-06-01T16:03:44;19.90;99.90
6690;DHT22;3382;51.576;8.076;2023-06-01T16:06:10;19.60;99.90
6690;DHT22;3382;51.576;8.076;2023-06-01T16:08:36;19.40;99.90
6690;DHT22;3382;51.576;8.076;2023-06-01T16:11:02;19.50;99.90
6690;DHT22;3382;51.576;8.076;2023-06-01T16:13:28;19.50;99.90
6690;DHT22;3382;51.576;8.076;2023-06-01T16:15:56;19.30;99.90
6690;DHT22;3382;51.576;8.076;2023-06-01T16:18:21;19.20;99.90
6690;DHT22;3382;51.576;8.076;2023-06-01T16:20:47;19.10;99.90
6690;DHT22;3382;51.576;8.076;2023-06-01T16:23:13;19.10;99.90
6690;DHT22;3382;51.576;8.076;2023-06-01T16:25:38;19.00;99.90
6690;DHT22;3382;51.576;8.076;2023-06-01T16:28:04;18.90;99.90
6690;DHT22;3382;51.576;8.076;2023-06-01T16:30:30;18.80;99.90
6690;DHT22;3382;51.576;8.076;2023-06-01T16:32:56;18.90;99.90
6690;DHT22;3382;51.576;8.076;2023-06-01T16:35:21;18.90;99.90
6690;DHT22;3382;51.576;8.076;2023-06-01T16:37:47;18.70;99.90
6690;DHT22;3382;51.576;8.076;2023-06-01T16:40:13;18.60;99.90
6690;DHT22;3382;51.576;8.076;2023-06-01T16:42:38;18.50;99.90
6690;DHT22;3382;51.576;8.076;2023-06-01T16:45:04;18.70;99.90
6690;DHT22;3382;51.576;8.076;2023-06-01T16:47:30;18.80;99.90